createdAt,value
2018-09-11T00:02:15.600Z,88.20
2018-09-11T00:04:45.481Z,86.60
2018-09-11T00:07:16.583Z,88.90
2018-09-11T00:09:46.253Z,87.70
2018-09-11T00:12:15.868Z,88.20
2018-09-11T00:14:46.400Z,90.00
2018-09-11T00:17:17.445Z,90.40
2018-09-11T00:19:50.321Z,90.60
2018-09-11T00:22:20.102Z,90.60
2018-09-11T00:24:49.925Z,90.90
2018-09-11T00:27:20.673Z,90.60
2018-09-11T00:29:50.187Z,90.60
2018-09-11T00:32:20.012Z,91.20
2018-09-11T00:34:50.451Z,91.40
2018-09-11T00:37:20.405Z,91.50
2018-09-11T00:39:50.174Z,91.40
2018-09-11T00:42:19.672Z,91.70
2018-09-11T00:44:49.383Z,91.50
2018-09-11T00:47:19.036Z,91.90
2018-09-11T00:49:50.238Z,92.00
2018-09-11T00:52:19.719Z,92.00
2018-09-11T00:54:50.700Z,92.20
2018-09-11T00:57:20.375Z,92.10
2018-09-11T00:59:50.104Z,92.40
2018-09-11T01:02:19.738Z,92.10
2018-09-11T01:04:49.974Z,92.10
2018-09-11T01:07:20.542Z,92.20
2018-09-11T01:09:51.381Z,92.10
2018-09-11T01:12:21.134Z,92.20
2018-09-11T01:14:51.119Z,92.20
2018-09-11T01:17:20.529Z,92.20
2018-09-11T01:19:50.243Z,92.20
2018-09-11T01:22:19.963Z,92.20
2018-09-11T01:24:49.713Z,92.50
2018-09-11T01:27:20.795Z,92.60
2018-09-11T01:29:50.157Z,92.60
2018-09-11T01:32:19.885Z,92.60
2018-09-11T01:34:49.883Z,92.70
2018-09-11T01:37:20.554Z,92.80
2018-09-11T01:39:50.232Z,92.80
2018-09-11T01:42:20.105Z,92.90
2018-09-11T01:44:50.152Z,92.70
2018-09-11T01:47:20.123Z,92.80
2018-09-11T01:49:50.548Z,93.00
2018-09-11T01:52:20.065Z,93.00
2018-09-11T01:54:51.803Z,93.00
2018-09-11T01:57:21.675Z,93.00
2018-09-11T01:59:51.817Z,93.30
2018-09-11T02:02:22.757Z,93.30
2018-09-11T02:04:52.674Z,93.30
2018-09-11T02:07:22.648Z,93.20
2018-09-11T02:09:52.634Z,93.30
2018-09-11T02:12:22.407Z,93.20
2018-09-11T02:14:52.067Z,93.40
2018-09-11T02:17:22.147Z,93.20
2018-09-11T02:19:52.031Z,93.40
2018-09-11T02:22:22.601Z,93.60
2018-09-11T02:24:52.239Z,93.50
2018-09-11T02:27:22.090Z,93.50
2018-09-11T02:29:52.821Z,93.50
2018-09-11T02:32:22.645Z,93.50
2018-09-11T02:34:52.283Z,93.60
2018-09-11T02:37:22.063Z,93.40
2018-09-11T02:39:51.704Z,93.70
2018-09-11T02:42:22.292Z,93.80
2018-09-11T02:44:52.381Z,93.60
2018-09-11T02:47:22.176Z,93.70
2018-09-11T02:49:51.841Z,93.70
2018-09-11T02:52:22.926Z,93.90
2018-09-11T02:54:52.717Z,93.90
2018-09-11T02:57:23.321Z,93.70
2018-09-11T02:59:53.030Z,93.70
2018-09-11T03:02:23.753Z,93.70
2018-09-11T03:04:53.795Z,93.60
2018-09-11T03:07:24.194Z,93.80
2018-09-11T03:09:54.290Z,93.70
2018-09-11T03:12:24.789Z,94.00
2018-09-11T03:14:55.937Z,93.70
2018-09-11T03:17:25.715Z,93.60
2018-09-11T03:19:56.620Z,93.90
2018-09-11T03:22:27.907Z,93.90
2018-09-11T03:24:58.586Z,93.80
2018-09-11T03:27:29.548Z,93.90
2018-09-11T03:29:59.324Z,93.70
2018-09-11T03:32:31.058Z,93.70
2018-09-11T03:35:00.821Z,93.60
2018-09-11T03:37:30.598Z,93.80
2018-09-11T03:40:00.392Z,94.00
2018-09-11T03:42:30.595Z,94.00
2018-09-11T03:44:59.983Z,93.90
2018-09-11T03:47:29.614Z,93.70
2018-09-11T03:49:59.347Z,94.00
2018-09-11T03:52:29.184Z,93.60
2018-09-11T03:54:59.646Z,93.60
2018-09-11T03:57:30.564Z,93.80
2018-09-11T04:00:00.560Z,93.80
2018-09-11T04:02:31.892Z,94.00
2018-09-11T04:05:03.666Z,94.00
2018-09-11T04:07:34.935Z,93.90
2018-09-11T04:10:04.910Z,93.80
2018-09-11T04:12:35.357Z,93.80
2018-09-11T04:15:05.678Z,93.70
2018-09-11T04:17:35.297Z,93.80
2018-09-11T04:20:04.996Z,94.30
2018-09-11T04:22:35.070Z,93.90
2018-09-11T04:25:06.877Z,93.90
2018-09-11T04:27:36.638Z,94.00
2018-09-11T04:30:06.575Z,93.80
2018-09-11T04:32:39.485Z,94.00
2018-09-11T04:35:10.757Z,94.00
2018-09-11T04:37:41.034Z,94.10
2018-09-11T04:40:11.527Z,94.10
2018-09-11T04:42:41.480Z,94.00
2018-09-11T04:45:12.595Z,94.00
2018-09-11T04:47:41.981Z,94.10
2018-09-11T04:50:13.269Z,94.20
2018-09-11T04:52:43.942Z,94.30
2018-09-11T04:55:13.920Z,94.20
2018-09-11T04:57:43.476Z,94.10
2018-09-11T05:00:14.138Z,94.10
2018-09-11T05:02:43.967Z,94.10
2018-09-11T05:05:14.901Z,94.10
2018-09-11T05:07:44.889Z,94.10
2018-09-11T05:10:14.816Z,94.20
2018-09-11T05:12:44.206Z,94.10
2018-09-11T05:15:14.685Z,94.00
2018-09-11T05:17:46.019Z,94.00
2018-09-11T05:20:15.877Z,94.20
2018-09-11T05:22:45.636Z,94.30
2018-09-11T05:25:15.639Z,94.20
2018-09-11T05:27:45.289Z,94.10
2018-09-11T05:30:15.205Z,94.10
2018-09-11T05:32:45.251Z,94.20
2018-09-11T05:35:15.473Z,94.30
2018-09-11T05:37:47.098Z,94.30
2018-09-11T05:40:16.872Z,94.30
2018-09-11T05:42:47.177Z,94.40
2018-09-11T05:45:17.328Z,94.40
2018-09-11T05:47:46.733Z,94.30
2018-09-11T05:50:16.800Z,94.20
2018-09-11T05:52:46.650Z,94.40
2018-09-11T05:55:17.027Z,94.20
2018-09-11T05:57:47.235Z,94.20
2018-09-11T06:00:17.403Z,94.30
2018-09-11T06:02:47.078Z,94.30
2018-09-11T06:05:16.833Z,94.20
2018-09-11T06:07:46.602Z,94.20
2018-09-11T06:10:20.121Z,94.20
2018-09-11T06:12:51.150Z,94.20
2018-09-11T06:15:20.834Z,94.30
2018-09-11T06:17:51.484Z,94.10
2018-09-11T06:20:21.015Z,94.10
2018-09-11T06:22:50.705Z,94.20
2018-09-11T06:25:20.632Z,94.30
2018-09-11T06:27:50.126Z,94.20
2018-09-11T06:30:19.855Z,94.20
2018-09-11T06:32:49.435Z,94.20
2018-09-11T06:35:19.051Z,94.20
2018-09-11T06:37:48.512Z,94.20
2018-09-11T06:40:18.636Z,94.40
2018-09-11T06:42:48.367Z,94.30
2018-09-11T06:45:17.866Z,94.30
2018-09-11T06:47:48.383Z,94.30
2018-09-11T06:50:17.921Z,94.30
2018-09-11T06:52:47.243Z,94.40
2018-09-11T06:55:17.202Z,94.30
2018-09-11T06:57:47.768Z,94.30
2018-09-11T07:00:18.195Z,94.30
2018-09-11T07:02:48.198Z,94.40
2018-09-11T07:05:17.822Z,94.20
2018-09-11T07:07:47.369Z,94.20
2018-09-11T07:10:17.671Z,94.40
2018-09-11T07:12:49.324Z,94.40
2018-09-11T07:15:19.227Z,94.20
2018-09-11T07:17:48.692Z,94.20
2018-09-11T07:20:18.696Z,94.20
2018-09-11T07:22:48.145Z,94.30
2018-09-11T07:25:18.040Z,94.30
2018-09-11T07:27:48.034Z,94.20
2018-09-11T07:30:18.559Z,94.40
2018-09-11T07:32:48.244Z,94.60
2018-09-11T07:35:17.705Z,94.60
2018-09-11T07:37:47.545Z,94.60
2018-09-11T07:40:18.137Z,94.70
2018-09-11T07:42:47.436Z,94.80
2018-09-11T07:45:18.196Z,95.00
2018-09-11T07:47:47.976Z,94.70
2018-09-11T07:50:17.618Z,94.70
2018-09-11T07:52:47.390Z,94.70
2018-09-11T07:55:17.102Z,94.70
2018-09-11T07:57:46.652Z,94.60
2018-09-11T08:00:16.598Z,94.70
2018-09-11T08:02:46.148Z,94.60
2018-09-11T08:05:16.131Z,94.60
2018-09-11T08:07:45.866Z,94.70
2018-09-11T08:10:16.313Z,94.70
2018-09-11T08:12:46.216Z,94.70
2018-09-11T08:15:15.815Z,94.40
2018-09-11T08:17:45.812Z,94.50
2018-09-11T08:20:15.367Z,94.70
2018-09-11T08:22:44.594Z,94.60
2018-09-11T08:25:15.575Z,94.80
2018-09-11T08:27:45.851Z,94.70
2018-09-11T08:30:15.782Z,94.70
2018-09-11T08:32:45.519Z,94.80
2018-09-11T08:35:15.338Z,94.90
2018-09-11T08:37:44.937Z,94.80
2018-09-11T08:40:14.677Z,94.80
2018-09-11T08:42:44.142Z,94.90
2018-09-11T08:45:13.844Z,94.80
2018-09-11T08:47:43.663Z,94.70
2018-09-11T08:50:13.506Z,94.60
2018-09-11T08:52:43.974Z,94.60
2018-09-11T08:55:13.479Z,94.60
2018-09-11T08:57:45.332Z,94.60
2018-09-11T09:00:14.885Z,94.80
2018-09-11T09:02:44.603Z,94.50
2018-09-11T09:05:15.787Z,94.60
2018-09-11T09:07:45.384Z,94.60
2018-09-11T09:10:15.120Z,94.40
2018-09-11T09:12:44.653Z,94.40
2018-09-11T09:15:14.443Z,94.40
2018-09-11T09:17:43.438Z,94.60
2018-09-11T09:20:13.022Z,94.60
2018-09-11T09:22:42.472Z,94.60
2018-09-11T09:25:12.181Z,94.50
2018-09-11T09:27:42.017Z,94.60
2018-09-11T09:30:11.337Z,94.60
2018-09-11T09:32:41.163Z,94.50
2018-09-11T09:35:11.186Z,94.50
2018-09-11T09:37:41.135Z,94.50
2018-09-11T09:40:10.854Z,94.50
2018-09-11T09:42:40.359Z,94.40
2018-09-11T09:45:09.963Z,94.30
2018-09-11T09:47:39.570Z,94.10
2018-09-11T09:50:09.093Z,94.10
2018-09-11T09:52:38.780Z,94.30
2018-09-11T09:55:09.408Z,94.60
2018-09-11T09:57:38.945Z,94.30
2018-09-11T10:00:08.513Z,94.40
2018-09-11T10:02:38.451Z,94.40
2018-09-11T10:05:08.062Z,94.10
2018-09-11T10:10:11.474Z,94.30
2018-09-11T10:12:42.170Z,94.20
2018-09-11T10:15:12.840Z,94.40
2018-09-11T10:17:42.635Z,94.20
2018-09-11T10:20:12.491Z,94.30
2018-09-11T10:22:41.906Z,94.20
2018-09-11T10:25:11.641Z,94.20
2018-09-11T10:27:42.697Z,94.30
2018-09-11T10:30:14.021Z,94.30
2018-09-11T10:32:43.683Z,94.50
2018-09-11T10:35:14.240Z,94.70
2018-09-11T10:37:43.758Z,94.70
2018-09-11T10:40:13.149Z,94.60
2018-09-11T10:42:42.548Z,94.70
2018-09-11T10:45:12.783Z,94.50
2018-09-11T10:47:42.607Z,94.50
2018-09-11T10:50:13.572Z,94.50
2018-09-11T10:52:42.990Z,94.30
2018-09-11T10:55:12.530Z,94.30
2018-09-11T10:57:41.899Z,94.30
2018-09-11T11:00:11.483Z,94.20
2018-09-11T11:02:41.017Z,94.40
2018-09-11T11:05:10.767Z,94.50
2018-09-11T11:07:40.454Z,94.10
2018-09-11T11:10:10.188Z,94.10
2018-09-11T11:12:40.184Z,94.00
2018-09-11T11:15:09.691Z,94.30
2018-09-11T11:17:39.274Z,94.20
2018-09-11T11:20:08.726Z,94.10
2018-09-11T11:22:37.963Z,94.10
2018-09-11T11:25:07.478Z,94.00
2018-09-11T11:27:37.104Z,94.10
2018-09-11T11:30:08.124Z,94.40
2018-09-11T11:32:38.049Z,94.40
2018-09-11T11:35:07.726Z,94.40
2018-09-11T11:37:37.696Z,94.40
2018-09-11T11:40:07.407Z,94.30
2018-09-11T11:42:37.091Z,94.20
2018-09-11T11:45:07.749Z,94.50
2018-09-11T11:47:37.322Z,94.40
2018-09-11T11:50:06.948Z,94.50
2018-09-11T11:52:36.791Z,94.40
2018-09-11T11:55:06.320Z,94.40
2018-09-11T11:57:36.068Z,94.50
2018-09-11T12:00:05.709Z,94.60
2018-09-11T12:02:36.122Z,94.50
2018-09-11T12:05:05.654Z,94.40
2018-09-11T12:07:34.973Z,94.50
2018-09-11T12:10:04.566Z,94.30
2018-09-11T12:12:34.570Z,94.20
2018-09-11T12:15:05.285Z,94.30
2018-09-11T12:17:35.575Z,94.20
2018-09-11T12:20:05.866Z,94.20
2018-09-11T12:22:35.675Z,94.40
2018-09-11T12:25:05.197Z,94.30
2018-09-11T12:27:34.493Z,94.60
2018-09-11T12:30:04.767Z,94.40
2018-09-11T12:32:35.529Z,94.60
2018-09-11T12:35:05.374Z,94.60
2018-09-11T12:37:34.955Z,94.80
2018-09-11T12:40:04.777Z,94.80
2018-09-11T12:42:35.472Z,94.20
2018-09-11T12:45:04.907Z,94.90
2018-09-11T12:47:35.215Z,95.00
2018-09-11T12:50:04.634Z,94.80
2018-09-11T12:52:34.308Z,94.40
2018-09-11T12:55:03.941Z,94.60
2018-09-11T12:57:33.523Z,94.60
2018-09-11T13:00:05.355Z,94.20
2018-09-11T13:02:35.568Z,94.20
2018-09-11T13:05:05.260Z,94.50
2018-09-11T13:07:34.867Z,94.50
2018-09-11T13:10:04.398Z,94.50
2018-09-11T13:12:33.753Z,94.70
2018-09-11T13:15:03.659Z,94.80
2018-09-11T13:17:33.648Z,94.30
2018-09-11T13:20:05.504Z,94.50
2018-09-11T13:22:35.301Z,94.30
2018-09-11T13:25:05.258Z,94.20
2018-09-11T13:27:36.430Z,94.20
2018-09-11T13:30:06.190Z,94.00
2018-09-11T13:32:35.782Z,93.90
2018-09-11T13:35:06.328Z,94.10
2018-09-11T13:37:36.028Z,94.10
2018-09-11T13:40:05.534Z,94.10
2018-09-11T13:42:36.093Z,94.40
2018-09-11T13:45:05.643Z,94.30
2018-09-11T13:47:35.568Z,94.40
2018-09-11T13:50:05.326Z,94.10
2018-09-11T13:52:34.887Z,94.10
2018-09-11T13:55:04.608Z,94.30
2018-09-11T13:57:34.199Z,94.20
2018-09-11T14:00:03.739Z,94.20
2018-09-11T14:02:33.403Z,94.00
2018-09-11T14:05:02.796Z,94.10
2018-09-11T14:07:32.339Z,94.10
2018-09-11T14:12:58.046Z,94.00
2018-09-11T14:15:27.538Z,94.10
2018-09-11T14:17:59.097Z,93.70
2018-09-11T14:20:32.320Z,93.90
2018-09-11T14:23:03.305Z,94.00
2018-09-11T14:25:37.830Z,93.70
2018-09-11T14:28:17.827Z,93.80
2018-09-11T14:30:50.833Z,93.40
2018-09-11T14:33:33.119Z,92.70
2018-09-11T14:36:11.407Z,93.20
2018-09-11T14:38:46.118Z,93.40
2018-09-11T14:41:17.873Z,92.90
2018-09-11T14:43:48.221Z,92.90
2018-09-11T14:46:41.768Z,93.60
2018-09-11T14:49:29.394Z,93.70
2018-09-11T14:52:01.248Z,93.10
2018-09-11T14:54:31.245Z,93.00
2018-09-11T14:57:02.099Z,93.20
2018-09-11T14:59:32.492Z,93.20
2018-09-11T15:02:02.797Z,93.50
2018-09-11T15:04:32.801Z,93.30
2018-09-11T15:07:04.294Z,93.50
2018-09-11T15:09:35.063Z,93.50
2018-09-11T15:12:06.348Z,93.50
2018-09-11T15:14:36.325Z,93.30
2018-09-11T15:17:06.338Z,92.80
2018-09-11T15:19:37.324Z,93.00
2018-09-11T15:22:07.909Z,93.00
2018-09-11T15:24:38.835Z,93.10
2018-09-11T15:27:08.994Z,93.20
2018-09-11T15:29:39.232Z,92.60
2018-09-11T15:32:09.100Z,92.30
2018-09-11T15:34:40.061Z,92.50
2018-09-11T15:37:11.264Z,93.00
2018-09-11T15:39:41.753Z,93.10
2018-09-11T15:42:12.330Z,93.00
2018-09-11T15:44:43.648Z,92.50
2018-09-11T15:47:14.364Z,92.60
2018-09-11T15:49:45.006Z,92.50
2018-09-11T15:52:14.987Z,92.90
2018-09-11T15:54:44.892Z,93.20
2018-09-11T15:57:15.521Z,93.10
2018-09-11T15:59:45.960Z,93.10
2018-09-11T16:02:15.764Z,93.10
2018-09-11T16:04:45.797Z,93.10
2018-09-11T16:07:15.233Z,93.20
2018-09-11T16:13:21.304Z,92.80
2018-09-11T16:15:51.894Z,93.10
2018-09-11T16:21:07.107Z,93.10
2018-09-11T16:23:42.660Z,92.90
2018-09-11T16:26:18.024Z,92.10
2018-09-11T16:31:32.545Z,91.70
2018-09-11T16:34:11.316Z,91.50
2018-09-11T16:36:43.705Z,92.50
2018-09-11T16:39:14.765Z,92.20
2018-09-11T16:41:44.930Z,92.70
2018-09-11T16:44:14.549Z,92.20
2018-09-11T16:46:45.054Z,91.90
2018-09-11T16:49:15.187Z,91.80
2018-09-11T16:51:45.725Z,91.30
2018-09-11T16:54:15.086Z,91.30
2018-09-11T16:56:44.600Z,92.20
2018-09-11T16:59:14.207Z,92.30
2018-09-11T17:01:44.203Z,91.90
2018-09-11T17:04:14.593Z,91.90
2018-09-11T17:06:44.882Z,92.40
2018-09-11T17:09:15.876Z,92.40
2018-09-11T17:11:45.497Z,92.40
2018-09-11T17:14:16.512Z,92.20
2018-09-11T17:16:46.786Z,92.60
2018-09-11T17:19:16.590Z,92.80
2018-09-11T17:21:46.279Z,92.70
2018-09-11T17:24:16.260Z,92.00
2018-09-11T17:26:45.768Z,92.70
2018-09-11T17:29:16.546Z,92.50
2018-09-11T17:31:47.041Z,92.60
2018-09-11T17:34:16.660Z,93.20
2018-09-11T17:36:46.384Z,93.00
2018-09-11T17:39:15.795Z,92.40
2018-09-11T17:41:45.727Z,92.30
2018-09-11T17:44:15.190Z,92.50
2018-09-11T17:46:44.608Z,92.20
2018-09-11T17:49:15.340Z,92.30
2018-09-11T17:51:45.396Z,92.30
2018-09-11T17:54:15.243Z,92.40
2018-09-11T17:56:45.779Z,92.20
2018-09-11T17:59:16.273Z,91.80
2018-09-11T18:01:45.708Z,91.70
2018-09-11T18:04:15.516Z,92.00
2018-09-11T18:06:45.899Z,92.00
2018-09-11T18:09:16.046Z,92.00
2018-09-11T18:11:45.617Z,92.10
2018-09-11T18:14:15.783Z,92.10
2018-09-11T18:16:45.378Z,92.20
2018-09-11T18:19:15.005Z,91.30
2018-09-11T18:21:44.951Z,91.50
2018-09-11T18:24:14.891Z,91.40
2018-09-11T18:26:44.740Z,91.20
2018-09-11T18:29:14.292Z,91.00
2018-09-11T18:31:43.902Z,90.90
2018-09-11T18:34:13.607Z,90.70
2018-09-11T18:36:44.309Z,90.70
2018-09-11T18:39:14.138Z,88.50
2018-09-11T18:41:43.921Z,90.30
2018-09-11T18:44:14.432Z,90.40
2018-09-11T18:46:44.798Z,91.30
2018-09-11T18:49:16.975Z,91.30
2018-09-11T18:51:46.741Z,90.00
2018-09-11T18:54:16.561Z,89.30
2018-09-11T18:56:46.286Z,90.40
2018-09-11T18:59:16.018Z,88.90
2018-09-11T19:01:45.862Z,90.40
2018-09-11T19:04:15.855Z,90.70
2018-09-11T19:06:45.570Z,88.10
2018-09-11T19:09:14.907Z,90.00
2018-09-11T19:11:44.376Z,87.50
2018-09-11T19:14:14.052Z,88.10
2018-09-11T19:16:47.395Z,87.90
2018-09-11T19:19:18.093Z,87.90
2018-09-11T19:21:48.317Z,87.30
2018-09-11T19:24:19.939Z,88.30
2018-09-11T19:26:50.096Z,87.50
2018-09-11T19:29:21.723Z,90.20
2018-09-11T19:31:52.800Z,89.90
2018-09-11T19:34:33.343Z,89.90
2018-09-11T19:37:05.141Z,88.40
2018-09-11T19:39:35.673Z,87.00
2018-09-11T19:42:07.977Z,88.20
2018-09-11T19:44:40.644Z,89.00
2018-09-11T19:47:18.082Z,88.60
2018-09-11T19:49:51.556Z,88.60
2018-09-11T19:55:18.482Z,83.90
2018-09-11T19:57:47.980Z,86.60
2018-09-11T20:00:17.640Z,85.30
2018-09-11T20:02:48.138Z,86.50
2018-09-11T20:05:18.277Z,86.40
2018-09-11T20:07:49.835Z,86.80
2018-09-11T20:10:19.701Z,83.10
2018-09-11T20:12:49.341Z,85.60
2018-09-11T20:15:18.808Z,86.90
2018-09-11T20:17:48.345Z,86.20
2018-09-11T20:20:18.808Z,86.00
2018-09-11T20:22:48.581Z,85.90
2018-09-11T20:25:18.397Z,84.40
2018-09-11T20:27:48.475Z,84.00
2018-09-11T20:30:18.550Z,81.60
2018-09-11T20:32:48.020Z,84.70
2018-09-11T20:35:17.695Z,80.30
2018-09-11T20:37:47.494Z,81.70
2018-09-11T20:40:17.665Z,82.00
2018-09-11T20:42:47.493Z,82.10
2018-09-11T20:45:17.486Z,78.30
2018-09-11T20:47:47.028Z,82.80
2018-09-11T20:50:17.915Z,84.70
2018-09-11T20:52:47.557Z,83.40
2018-09-11T20:55:18.079Z,78.40
2018-09-11T20:57:49.005Z,78.20
2018-09-11T21:00:20.786Z,82.30
2018-09-11T21:02:51.408Z,79.80
2018-09-11T21:05:23.132Z,79.70
2018-09-11T21:07:53.577Z,74.40
2018-09-11T21:10:23.292Z,76.90
2018-09-11T21:12:53.190Z,74.50
2018-09-11T21:15:23.173Z,73.20
2018-09-11T21:17:52.819Z,73.90
2018-09-11T21:20:22.166Z,70.60
2018-09-11T21:22:54.983Z,72.90
2018-09-11T21:25:25.032Z,72.80
2018-09-11T21:27:55.500Z,71.60
2018-09-11T21:30:25.167Z,71.60
2018-09-11T21:32:55.161Z,73.90
2018-09-11T21:35:25.422Z,72.20
2018-09-11T21:37:55.926Z,75.40
2018-09-11T21:40:25.514Z,75.40
2018-09-11T21:42:55.177Z,76.10
2018-09-11T21:45:25.142Z,75.30
2018-09-11T21:47:55.715Z,74.50
2018-09-11T21:50:25.656Z,72.30
2018-09-11T21:52:55.328Z,72.90
2018-09-11T21:55:25.496Z,73.60
2018-09-11T21:57:56.563Z,72.20
2018-09-11T22:00:26.787Z,68.20
2018-09-11T22:02:57.028Z,68.10
2018-09-11T22:05:27.319Z,69.90
2018-09-11T22:07:57.193Z,71.10
2018-09-11T22:10:26.805Z,74.00
2018-09-11T22:12:57.728Z,74.30
2018-09-11T22:15:28.455Z,70.50
2018-09-11T22:17:59.105Z,70.90
2018-09-11T22:20:29.013Z,70.90
2018-09-11T22:22:58.687Z,71.00
2018-09-11T22:25:28.333Z,69.70
2018-09-11T22:27:58.102Z,70.50
2018-09-11T22:30:27.944Z,70.80
2018-09-11T22:32:57.890Z,73.00
2018-09-11T22:35:28.253Z,75.20
2018-09-11T22:37:57.973Z,73.80
2018-09-11T22:40:27.759Z,75.10
2018-09-11T22:43:18.306Z,75.60
2018-09-11T22:45:48.623Z,79.70
2018-09-11T22:48:18.327Z,80.40
2018-09-11T22:50:48.161Z,79.40
2018-09-11T22:53:17.856Z,79.90
2018-09-11T22:55:47.631Z,78.70
2018-09-11T22:58:17.152Z,77.20
2018-09-11T23:00:46.668Z,80.40
2018-09-11T23:03:16.185Z,83.20
2018-09-11T23:05:46.322Z,84.70
2018-09-11T23:08:17.069Z,85.70
2018-09-11T23:10:46.777Z,85.60
2018-09-11T23:13:16.742Z,84.90
2018-09-11T23:15:47.271Z,85.60
2018-09-11T23:18:18.133Z,85.50
2018-09-11T23:20:47.968Z,86.50
2018-09-11T23:23:18.443Z,88.40
2018-09-11T23:25:49.958Z,88.40
2018-09-11T23:28:20.636Z,89.30
2018-09-11T23:30:50.301Z,89.30
2018-09-11T23:33:20.106Z,89.10
2018-09-11T23:35:49.905Z,89.90
2018-09-11T23:38:19.663Z,90.00
2018-09-11T23:40:49.524Z,90.20
2018-09-11T23:43:22.283Z,90.20
2018-09-11T23:45:51.981Z,90.40
2018-09-11T23:48:21.525Z,91.10
2018-09-11T23:50:51.266Z,91.30
2018-09-11T23:53:21.616Z,91.20
2018-09-11T23:55:51.127Z,91.20
2018-09-11T23:58:20.604Z,91.00
